»·PEaware :: N300SC KSBD-KEGE

N300SC :: KSBD-KEGE

FLIGHT INFORMATION

Flight Status: Arrived
Operator: Privately registered:
United States
More flights under this callsign
Pilot: Anonymous 3903 (3903)
Aircraft: GATES LEARJET LEARJET 35/36
(LJ35)
More flights by this aircraft type
Origin: KSBD San Bernardino Intl
United States
Destination: KEGE Eagle Co Regl
United States
More flights between these airports :: More routes between these airports
Route: +PDZ J60 HVE JNC RLG
File this flight plan on PilotEdge
Remarks:
Altitude:
(Current/Filed)
39,000ft
Speed:
(Current/Filed)
450kts
Departed: 05-Aug-19 03:42 PM
Arrived: 05-Aug-19 05:20 PM
Distance/Time
Traveled:
596nm/1:38
Distance/Time
To Go:
Arrived

Flight Plot

Page will automatically refresh every two minutes.

Flight plan parsing failed; only flown route is shown


Map Options




Map Legend


Flown Route
Filed Route
Departure Airport
Arrival Airport
Navaid (VOR, NDB)
Fix

Horizontal Profiles

Position Reports

Time Latitude Longitude Heading Altitude Ground
Speed
05-Aug-19 15:21 34.102012 -117.230871 17 1121ft 0kts
05-Aug-19 15:22 34.102012 -117.230871 17 1121ft 0kts
05-Aug-19 15:23 34.102012 -117.230871 17 1121ft 0kts
05-Aug-19 15:24 34.102012 -117.230871 17 1121ft 0kts
05-Aug-19 15:25 34.102012 -117.230871 17 1121ft 0kts
05-Aug-19 15:26 34.102012 -117.230871 17 1121ft 0kts
05-Aug-19 15:27 34.102012 -117.230871 17 1121ft 0kts
05-Aug-19 15:28 34.102012 -117.230871 17 1121ft 0kts
05-Aug-19 15:29 34.102012 -117.230871 17 1121ft 0kts
05-Aug-19 15:30 34.102012 -117.230871 17 1121ft 0kts
05-Aug-19 15:31 34.102012 -117.230871 17 1121ft 0kts
05-Aug-19 15:32 34.102012 -117.230871 17 1121ft 0kts
05-Aug-19 15:33 34.102012 -117.230871 17 1121ft 0kts
05-Aug-19 15:34 34.102012 -117.230871 17 1121ft 0kts
05-Aug-19 15:35 34.102136 -117.230946 281 1121ft 3kts
05-Aug-19 15:36 34.100884 -117.231939 102 1121ft 5kts
05-Aug-19 15:37 34.099833 -117.227557 105 1121ft 8kts
05-Aug-19 15:38 34.100664 -117.223262 70 1121ft 15kts
05-Aug-19 15:39 34.100830 -117.219910 161 1121ft 7kts
05-Aug-19 15:40 34.099801 -117.219825 249 1121ft 6kts
05-Aug-19 15:41 34.087743 -117.261541 249 2062ft 210kts
05-Aug-19 15:42 34.054583 -117.334763 226 5177ft 271kts
05-Aug-19 15:43 34.008665 -117.404794 260 8243ft 274kts
05-Aug-19 15:44 34.058416 -117.464331 357 10496ft 311kts
05-Aug-19 15:45 34.131636 -117.415268 47 13357ft 306kts
05-Aug-19 15:46 34.191074 -117.339201 47 15657ft 313kts
05-Aug-19 15:47 34.255284 -117.261426 47 17721ft 356kts
05-Aug-19 15:48 34.328603 -117.172377 47 20534ft 383kts
05-Aug-19 15:49 34.404795 -117.078958 49 23636ft 393kts
05-Aug-19 15:50 34.464445 -116.968415 63 26247ft 399kts
05-Aug-19 15:51 34.531129 -116.857197 52 28621ft 418kts
05-Aug-19 15:52 34.607137 -116.749185 54 31128ft 419kts
05-Aug-19 15:53 34.680012 -116.638493 54 33340ft 419kts
05-Aug-19 15:54 34.753251 -116.528671 55 35204ft 419kts
05-Aug-19 15:55 34.828893 -116.416767 54 36316ft 434kts
05-Aug-19 15:56 34.911977 -116.306943 47 37421ft 448kts
05-Aug-19 15:57 35.002871 -116.200967 51 38526ft 452kts
05-Aug-19 15:58 35.087627 -116.084506 50 38954ft 472kts
05-Aug-19 15:59 35.179890 -115.963990 50 38941ft 499kts
05-Aug-19 16:00 35.275606 -115.836573 50 38938ft 516kts
05-Aug-19 16:01 35.372015 -115.708937 49 38935ft 504kts
05-Aug-19 16:02 35.466436 -115.584007 49 38925ft 498kts
05-Aug-19 16:03 35.560492 -115.457598 54 38926ft 500kts
05-Aug-19 16:04 35.651676 -115.327986 47 38928ft 505kts
05-Aug-19 16:05 35.749061 -115.202776 50 38935ft 506kts
05-Aug-19 16:06 35.842518 -115.072382 50 38939ft 508kts
05-Aug-19 16:07 35.936193 -114.945172 50 38908ft 506kts
05-Aug-19 16:08 36.028227 -114.814889 50 38893ft 501kts
05-Aug-19 16:09 36.120713 -114.687353 52 38883ft 496kts
05-Aug-19 16:10 36.206466 -114.554500 49 38881ft 493kts
05-Aug-19 16:11 36.296950 -114.428553 53 38937ft 488kts
05-Aug-19 16:12 36.381764 -114.297579 53 38937ft 485kts
05-Aug-19 16:13 36.468473 -114.168233 52 38943ft 490kts
05-Aug-19 16:14 36.555926 -114.037032 52 38951ft 497kts
05-Aug-19 16:15 36.644266 -113.903535 52 38976ft 502kts
05-Aug-19 16:16 36.732636 -113.767905 51 38998ft 506kts
05-Aug-19 16:17 36.824295 -113.633623 51 38985ft 509kts
05-Aug-19 16:18 36.915528 -113.497828 51 39024ft 510kts
05-Aug-19 16:19 37.005448 -113.360502 52 39042ft 511kts
05-Aug-19 16:20 37.094804 -113.222730 52 39115ft 511kts
05-Aug-19 16:21 37.184426 -113.084760 51 39148ft 508kts
05-Aug-19 16:22 37.272447 -112.947535 51 39222ft 501kts
05-Aug-19 16:23 37.360774 -112.812291 51 39230ft 498kts
05-Aug-19 16:24 37.447966 -112.678306 51 39245ft 494kts
05-Aug-19 16:25 37.534484 -112.544158 51 39288ft 491kts
05-Aug-19 16:26 37.620713 -112.410399 50 39352ft 493kts
05-Aug-19 16:27 37.706327 -112.273587 55 39399ft 500kts
05-Aug-19 16:28 37.776931 -112.121412 63 39419ft 506kts
05-Aug-19 16:29 37.843697 -111.963628 60 39406ft 512kts
05-Aug-19 16:30 37.915133 -111.810440 60 39375ft 498kts
05-Aug-19 16:31 37.982946 -111.660077 60 39346ft 490kts
05-Aug-19 16:32 38.050966 -111.509878 60 40259ft 490kts
05-Aug-19 16:33 38.118954 -111.359458 60 41239ft 490kts
05-Aug-19 16:34 38.187196 -111.208144 59 41335ft 495kts
05-Aug-19 16:36 38.255654 -111.056002 59 41321ft 498kts
05-Aug-19 16:37 38.324887 -110.901944 59 41238ft 502kts
05-Aug-19 16:38 38.394378 -110.747323 59 41230ft 503kts
05-Aug-19 16:39 38.461217 -110.590472 63 41229ft 504kts
05-Aug-19 16:40 38.518070 -110.426789 67 41193ft 504kts
05-Aug-19 16:41 38.571229 -110.261340 67 41158ft 504kts
05-Aug-19 16:42 38.625710 -110.095875 66 41150ft 504kts
05-Aug-19 16:43 38.681300 -109.931034 66 41136ft 504kts
05-Aug-19 16:44 38.736555 -109.765972 66 41128ft 504kts
05-Aug-19 16:45 38.791609 -109.600883 66 41128ft 503kts
05-Aug-19 16:46 38.846497 -109.436050 65 41130ft 503kts
05-Aug-19 16:47 38.901294 -109.270979 65 41148ft 503kts
05-Aug-19 16:48 38.956071 -109.105646 65 41163ft 502kts
05-Aug-19 16:49 39.010729 -108.940439 65 41168ft 502kts
05-Aug-19 16:50 39.067651 -108.776016 61 41168ft 501kts
05-Aug-19 16:51 39.131333 -108.618762 59 40623ft 487kts
05-Aug-19 16:52 39.193964 -108.465818 59 38624ft 481kts
05-Aug-19 16:53 39.257503 -108.312551 59 36628ft 489kts
05-Aug-19 16:53 39.311673 -108.181097 60 34968ft 499kts
05-Aug-19 16:55 39.384783 -107.999317 61 32639ft 481kts
05-Aug-19 16:56 39.446061 -107.847634 60 30637ft 469kts
05-Aug-19 16:57 39.506862 -107.700121 60 28640ft 460kts
05-Aug-19 16:57 39.555548 -107.578320 60 26973ft 453kts
05-Aug-19 16:58 39.612186 -107.434266 60 24977ft 444kts
05-Aug-19 16:59 39.666950 -107.295396 60 22977ft 418kts
05-Aug-19 17:00 39.719092 -107.165579 60 21409ft 386kts
05-Aug-19 17:01 39.766808 -107.045490 61 20120ft 363kts
05-Aug-19 17:02 39.812329 -106.931273 55 18817ft 349kts
05-Aug-19 17:03 39.878815 -106.843480 40 17526ft 336kts
05-Aug-19 17:04 39.948632 -106.764303 39 16226ft 329kts
05-Aug-19 17:05 40.017630 -106.686885 39 14927ft 324kts
05-Aug-19 17:06 40.071315 -106.600841 86 14077ft 301kts
05-Aug-19 17:07 40.043255 -106.512523 120 14073ft 242kts
05-Aug-19 17:08 40.001031 -106.452012 176 14082ft 227kts
05-Aug-19 17:09 39.938687 -106.465257 198 14088ft 237kts
05-Aug-19 17:10 39.873356 -106.492774 201 14110ft 245kts
05-Aug-19 17:11 39.812813 -106.520445 201 13911ft 222kts
05-Aug-19 17:12 39.752623 -106.545910 199 13397ft 245kts
05-Aug-19 17:13 39.694746 -106.587932 233 12968ft 228kts
05-Aug-19 17:14 39.677979 -106.665924 264 11975ft 226kts
05-Aug-19 17:15 39.668705 -106.734149 261 9901ft 164kts
05-Aug-19 17:16 39.658632 -106.790620 257 8379ft 162kts
05-Aug-19 17:17 39.650172 -106.846538 264 7373ft 155kts
05-Aug-19 17:18 39.644388 -106.901077 263 6574ft 149kts
05-Aug-19 17:19 39.641571 -106.922735 183 6518ft 6kts
05-Aug-19 17:20 39.641379 -106.918453 81 6518ft 13kts
05-Aug-19 17:21 39.642038 -106.912397 82 6518ft 15kts
05-Aug-19 17:22 39.642560 -106.907686 81 6518ft 17kts
05-Aug-19 17:23 39.641991 -106.905557 169 6518ft 4kts
05-Aug-19 17:24 39.641833 -106.905902 264 6518ft 0kts
05-Aug-19 17:25 39.641833 -106.905903 264 6518ft 0kts
05-Aug-19 17:26 39.641833 -106.905904 264 6518ft 0kts
05-Aug-19 17:27 39.641833 -106.905904 264 6518ft 0kts

Navigation Log

Ident Type
Flight plan parsing failed, navigation log unavailable